createdAt,value
2019-03-27T00:01:17.263Z,11.60
2019-03-27T00:03:45.307Z,11.13
2019-03-27T00:06:13.039Z,10.97
2019-03-27T00:08:41.149Z,12.03
2019-03-27T00:11:08.872Z,11.17
2019-03-27T00:13:36.534Z,10.47
2019-03-27T00:16:04.221Z,10.73
2019-03-27T00:18:32.112Z,11.13
2019-03-27T00:21:00.346Z,11.87
2019-03-27T00:23:28.098Z,12.33
2019-03-27T00:25:55.838Z,11.37
2019-03-27T00:28:24.603Z,12.00
2019-03-27T00:30:52.288Z,11.97
2019-03-27T00:33:20.463Z,12.37
2019-03-27T00:35:48.570Z,12.10
2019-03-27T00:38:16.316Z,11.47
2019-03-27T00:40:44.023Z,11.80
2019-03-27T00:43:11.801Z,13.27
2019-03-27T00:48:55.226Z,12.20
2019-03-27T00:51:22.958Z,11.93
2019-03-27T00:53:50.701Z,12.40
2019-03-27T00:56:59.020Z,12.10
2019-03-27T00:59:26.721Z,12.63
2019-03-27T01:01:54.481Z,14.63
2019-03-27T01:04:22.208Z,11.97
2019-03-27T01:10:10.968Z,12.03
2019-03-27T01:15:20.033Z,13.83
2019-03-27T01:17:47.638Z,12.07
2019-03-27T01:20:15.387Z,10.90
2019-03-27T01:22:43.121Z,12.07
2019-03-27T01:25:10.965Z,11.80
2019-03-27T01:27:39.038Z,11.90
2019-03-27T01:30:07.065Z,11.43
2019-03-27T01:32:34.814Z,13.13
2019-03-27T01:35:02.616Z,12.20
2019-03-27T01:37:31.496Z,13.57
2019-03-27T01:39:59.289Z,11.00
2019-03-27T01:42:27.044Z,12.70
2019-03-27T01:44:54.777Z,12.70
2019-03-27T01:47:22.403Z,13.80
2019-03-27T01:49:50.160Z,14.63
2019-03-27T01:52:17.803Z,13.20
2019-03-27T01:54:45.529Z,12.93
2019-03-27T01:57:13.372Z,14.30
2019-03-27T01:59:41.117Z,12.80
2019-03-27T02:02:08.873Z,12.70
2019-03-27T02:04:36.585Z,12.20
2019-03-27T02:07:04.419Z,11.67
2019-03-27T02:09:32.157Z,12.83
2019-03-27T02:12:00.259Z,12.97
2019-03-27T02:14:28.265Z,12.90
2019-03-27T02:16:55.886Z,13.43
2019-03-27T02:19:23.600Z,12.30
2019-03-27T02:21:51.409Z,13.63
2019-03-27T02:24:19.146Z,12.17
2019-03-27T02:26:47.273Z,12.17
2019-03-27T02:29:15.038Z,13.03
2019-03-27T02:31:42.740Z,12.07
2019-03-27T02:34:10.532Z,12.50
2019-03-27T02:36:38.302Z,13.50
2019-03-27T02:39:06.042Z,11.97
2019-03-27T02:41:33.914Z,13.40
2019-03-27T02:44:01.664Z,12.80
2019-03-27T02:46:29.376Z,13.50
2019-03-27T02:48:57.059Z,13.43
2019-03-27T02:51:24.777Z,11.80
2019-03-27T02:53:52.550Z,12.30
2019-03-27T02:56:20.371Z,12.33
2019-03-27T02:58:48.142Z,14.10
2019-03-27T03:01:15.825Z,13.13
2019-03-27T03:03:43.570Z,13.67
2019-03-27T03:06:11.339Z,14.27
2019-03-27T03:08:39.022Z,13.10
2019-03-27T03:11:06.763Z,14.43
2019-03-27T03:13:34.527Z,12.53
2019-03-27T03:16:02.449Z,13.97
2019-03-27T03:18:30.143Z,13.30
2019-03-27T03:20:57.838Z,14.20
2019-03-27T03:23:25.522Z,14.10
2019-03-27T03:25:53.227Z,13.67
2019-03-27T03:28:20.985Z,14.37
2019-03-27T03:30:48.826Z,14.27
2019-03-27T03:33:16.628Z,13.20
2019-03-27T03:35:45.290Z,13.30
2019-03-27T03:38:13.010Z,14.00
2019-03-27T03:40:41.087Z,13.03
2019-03-27T03:43:08.789Z,13.40
2019-03-27T03:45:36.485Z,12.80
2019-03-27T03:48:04.124Z,13.30
2019-03-27T03:50:42.760Z,15.43
2019-03-27T03:53:12.470Z,13.90
2019-03-27T03:55:40.906Z,12.43
2019-03-27T03:58:13.556Z,13.27
2019-03-27T04:00:41.738Z,13.00
2019-03-27T04:03:09.919Z,13.10
2019-03-27T04:05:37.549Z,13.50
2019-03-27T04:08:05.217Z,14.07
2019-03-27T04:10:33.009Z,13.23
2019-03-27T04:13:00.742Z,14.53
2019-03-27T04:15:28.845Z,14.10
2019-03-27T04:17:56.472Z,15.63
2019-03-27T04:20:24.404Z,13.63
2019-03-27T04:22:52.138Z,13.27
2019-03-27T04:25:20.348Z,15.13
2019-03-27T04:27:48.066Z,14.53
2019-03-27T04:30:15.974Z,14.00
2019-03-27T04:32:43.721Z,14.83
2019-03-27T04:35:11.661Z,15.00
2019-03-27T04:37:39.354Z,14.63
2019-03-27T04:40:07.504Z,13.27
2019-03-27T04:42:35.492Z,13.90
2019-03-27T04:45:03.354Z,15.63
2019-03-27T04:47:32.424Z,15.40
2019-03-27T04:50:00.494Z,16.17
2019-03-27T04:52:30.268Z,15.90
2019-03-27T04:54:57.932Z,14.63
2019-03-27T04:57:26.135Z,15.60
2019-03-27T04:59:53.871Z,15.00
2019-03-27T05:02:21.569Z,14.80
2019-03-27T05:04:49.491Z,15.10
2019-03-27T05:07:17.294Z,15.13
2019-03-27T05:09:45.391Z,14.70
2019-03-27T05:12:13.127Z,16.17
2019-03-27T05:14:40.873Z,15.93
2019-03-27T05:17:08.745Z,16.80
2019-03-27T05:19:36.796Z,16.23
2019-03-27T05:22:04.491Z,15.40
2019-03-27T05:24:32.249Z,16.37
2019-03-27T05:27:00.295Z,17.40
2019-03-27T05:29:28.068Z,15.70
2019-03-27T05:31:55.842Z,15.37
2019-03-27T05:34:23.624Z,14.80
2019-03-27T05:36:51.228Z,16.20
2019-03-27T05:39:19.294Z,16.07
2019-03-27T05:41:46.915Z,17.40
2019-03-27T05:44:15.036Z,16.37
2019-03-27T05:46:42.796Z,15.60
2019-03-27T05:49:10.662Z,15.40
2019-03-27T05:51:38.444Z,17.47
2019-03-27T05:54:06.154Z,15.90
2019-03-27T05:56:35.959Z,14.77
2019-03-27T05:59:03.808Z,14.73
2019-03-27T06:01:31.554Z,14.70
2019-03-27T06:03:59.512Z,14.10
2019-03-27T06:06:27.222Z,13.93
2019-03-27T06:08:54.953Z,12.77
2019-03-27T06:11:22.751Z,13.83
2019-03-27T06:13:50.500Z,13.80
2019-03-27T06:16:18.547Z,13.17
2019-03-27T06:18:46.269Z,12.73
2019-03-27T06:21:14.015Z,15.63
2019-03-27T06:23:41.609Z,14.40
2019-03-27T06:26:09.351Z,14.67
2019-03-27T06:28:37.445Z,14.67
2019-03-27T06:31:05.179Z,15.27
2019-03-27T06:33:32.959Z,13.90
2019-03-27T06:36:00.609Z,14.20
2019-03-27T06:38:28.215Z,15.47
2019-03-27T06:40:56.089Z,16.07
2019-03-27T06:43:23.819Z,15.33
2019-03-27T06:45:51.601Z,15.73
2019-03-27T06:48:26.062Z,14.20
2019-03-27T06:50:49.904Z,15.20
2019-03-27T06:53:17.601Z,16.43
2019-03-27T06:55:45.380Z,16.00
2019-03-27T06:58:13.480Z,16.50
2019-03-27T07:00:41.607Z,22.87
2019-03-27T07:03:09.300Z,15.37
2019-03-27T07:05:36.958Z,15.57
2019-03-27T07:08:04.732Z,14.93
2019-03-27T07:10:32.458Z,14.00
2019-03-27T07:13:00.348Z,14.57
2019-03-27T07:15:28.086Z,14.90
2019-03-27T07:17:55.941Z,13.90
2019-03-27T07:20:23.662Z,13.40
2019-03-27T07:22:51.410Z,16.20
2019-03-27T07:25:19.182Z,15.03
2019-03-27T07:27:46.913Z,14.13
2019-03-27T07:30:14.745Z,14.60
2019-03-27T07:32:42.848Z,15.60
2019-03-27T07:35:10.579Z,16.13
2019-03-27T07:37:38.280Z,31.90
2019-03-27T07:40:06.895Z,15.77
2019-03-27T07:42:34.647Z,14.70
2019-03-27T07:45:02.655Z,14.10
2019-03-27T07:47:30.276Z,14.20
2019-03-27T07:49:58.287Z,13.77
2019-03-27T07:52:26.395Z,12.83
2019-03-27T07:54:54.123Z,13.00
2019-03-27T07:57:21.828Z,13.20
2019-03-27T07:59:49.587Z,13.50
2019-03-27T08:02:17.616Z,11.40
2019-03-27T08:04:45.335Z,11.37
2019-03-27T08:07:25.911Z,13.57
2019-03-27T08:09:42.767Z,11.63
2019-03-27T08:12:10.531Z,10.87
2019-03-27T08:14:38.256Z,11.50
2019-03-27T08:17:05.997Z,11.90
2019-03-27T08:19:33.693Z,11.30
2019-03-27T08:22:01.787Z,12.47
2019-03-27T08:24:29.548Z,9.90
2019-03-27T08:26:57.276Z,10.67
2019-03-27T08:29:25.276Z,10.03
2019-03-27T08:31:53.046Z,11.77
2019-03-27T08:34:20.675Z,10.97
2019-03-27T08:36:48.698Z,11.50
2019-03-27T08:39:16.316Z,11.93
2019-03-27T08:41:44.430Z,10.60
2019-03-27T08:44:12.162Z,11.30
2019-03-27T08:46:40.174Z,10.23
2019-03-27T08:49:20.745Z,10.83
2019-03-27T08:51:37.970Z,11.57
2019-03-27T08:54:05.805Z,10.20
2019-03-27T08:56:33.551Z,10.40
2019-03-27T08:59:01.276Z,8.98
2019-03-27T09:01:29.404Z,9.55
2019-03-27T09:03:57.165Z,9.27
2019-03-27T09:06:33.499Z,10.20
2019-03-27T09:08:54.625Z,9.97
2019-03-27T09:11:22.543Z,11.43
2019-03-27T09:13:50.266Z,10.13
2019-03-27T09:16:18.139Z,9.07
2019-03-27T09:18:46.245Z,9.87
2019-03-27T09:21:14.073Z,10.00
2019-03-27T09:23:41.808Z,7.87
2019-03-27T09:26:09.440Z,8.13
2019-03-27T09:28:37.175Z,8.37
2019-03-27T09:31:05.060Z,8.83
2019-03-27T09:33:32.789Z,9.03
2019-03-27T09:36:00.450Z,9.17
2019-03-27T09:38:28.252Z,8.63
2019-03-27T09:40:55.883Z,8.43
2019-03-27T09:43:23.611Z,9.63
2019-03-27T09:45:51.348Z,10.20
2019-03-27T09:48:19.058Z,7.50
2019-03-27T09:50:47.080Z,9.53
2019-03-27T09:53:14.843Z,9.13
2019-03-27T09:55:42.937Z,9.50
2019-03-27T09:58:10.989Z,12.30
2019-03-27T10:01:09.935Z,10.33
2019-03-27T10:03:37.674Z,9.50
2019-03-27T10:06:05.417Z,8.90
2019-03-27T10:08:33.488Z,10.13
2019-03-27T10:11:01.195Z,9.93
2019-03-27T10:13:29.179Z,7.93
2019-03-27T10:15:57.015Z,9.00
2019-03-27T10:18:24.973Z,9.67
2019-03-27T10:20:52.621Z,8.90
2019-03-27T10:23:20.340Z,9.77
2019-03-27T10:25:48.089Z,10.53
2019-03-27T10:28:15.841Z,9.60
2019-03-27T10:30:43.607Z,9.70
2019-03-27T10:33:11.343Z,10.70
2019-03-27T10:35:39.346Z,9.50
2019-03-27T10:38:07.080Z,9.53
2019-03-27T10:40:34.814Z,9.80
2019-03-27T10:43:02.563Z,9.40
2019-03-27T10:45:30.337Z,9.20
2019-03-27T10:47:58.085Z,8.60
2019-03-27T10:50:25.801Z,9.27
2019-03-27T10:52:53.962Z,9.17
2019-03-27T10:55:21.687Z,9.20
2019-03-27T10:57:49.405Z,8.83
2019-03-27T11:00:17.187Z,8.30
2019-03-27T11:02:44.909Z,8.87
2019-03-27T11:05:12.761Z,10.30
2019-03-27T11:07:40.509Z,8.10
2019-03-27T11:10:08.951Z,8.57
2019-03-27T11:12:37.683Z,7.97
2019-03-27T11:15:05.884Z,7.23
2019-03-27T11:17:33.605Z,7.80
2019-03-27T11:20:01.411Z,7.60
2019-03-27T11:22:29.336Z,7.87
2019-03-27T11:24:59.920Z,7.10
2019-03-27T11:27:27.822Z,6.83
2019-03-27T11:29:55.611Z,7.20
2019-03-27T11:32:23.955Z,7.00
2019-03-27T11:34:51.702Z,7.67
2019-03-27T11:37:20.239Z,7.20
2019-03-27T11:39:48.005Z,5.90
2019-03-27T11:42:15.681Z,6.30
2019-03-27T11:44:44.103Z,4.50
2019-03-27T11:47:12.141Z,4.30
2019-03-27T11:49:40.257Z,6.50
2019-03-27T11:52:07.867Z,5.77
2019-03-27T11:54:35.609Z,6.60
2019-03-27T11:57:03.417Z,6.03
2019-03-27T11:59:31.510Z,6.13
2019-03-27T12:01:59.275Z,5.57
2019-03-27T12:04:26.989Z,4.60
2019-03-27T12:06:54.725Z,4.63
2019-03-27T12:09:22.854Z,4.70
2019-03-27T12:11:50.570Z,4.80
2019-03-27T12:14:18.715Z,4.73
2019-03-27T12:16:49.735Z,5.10
2019-03-27T12:19:16.502Z,4.83
2019-03-27T12:21:44.318Z,5.47
2019-03-27T12:24:12.068Z,5.50
2019-03-27T12:26:39.792Z,5.70
2019-03-27T12:29:07.480Z,5.23
2019-03-27T12:31:35.574Z,4.80
2019-03-27T12:34:03.244Z,5.70
2019-03-27T12:36:31.015Z,4.97
2019-03-27T12:38:58.763Z,4.90
2019-03-27T12:41:26.496Z,6.10
2019-03-27T12:43:54.262Z,4.80
2019-03-27T12:46:21.964Z,5.30
2019-03-27T12:48:49.901Z,5.30
2019-03-27T12:51:18.269Z,4.70
2019-03-27T12:53:46.023Z,5.80
2019-03-27T12:56:13.753Z,4.70
2019-03-27T12:58:41.559Z,5.60
2019-03-27T13:01:09.274Z,5.50
2019-03-27T13:03:37.016Z,6.57
2019-03-27T13:06:04.809Z,5.90
2019-03-27T13:08:32.527Z,6.17
2019-03-27T13:11:00.277Z,5.30
2019-03-27T13:13:28.107Z,7.90
2019-03-27T13:15:55.815Z,6.17
2019-03-27T13:18:23.532Z,5.73
2019-03-27T13:20:51.172Z,5.30
2019-03-27T13:23:19.333Z,6.27
2019-03-27T13:28:49.409Z,5.10
2019-03-27T13:31:24.719Z,5.10
2019-03-27T13:36:53.864Z,4.17
2019-03-27T13:39:21.554Z,5.20
2019-03-27T13:44:49.487Z,5.40
2019-03-27T13:47:17.097Z,5.40
2019-03-27T13:49:45.609Z,5.47
2019-03-27T13:52:13.398Z,5.20
2019-03-27T13:57:23.707Z,5.20
2019-03-27T13:59:51.558Z,5.80
2019-03-27T14:02:19.291Z,5.13
2019-03-27T14:04:47.062Z,4.77
2019-03-27T14:07:15.178Z,5.10
2019-03-27T14:09:42.916Z,4.50
2019-03-27T14:12:11.690Z,5.23
2019-03-27T14:14:49.564Z,5.43
2019-03-27T14:17:09.036Z,6.13
2019-03-27T14:19:36.769Z,5.30
2019-03-27T14:22:04.468Z,5.27
2019-03-27T14:24:32.517Z,5.73
2019-03-27T14:27:00.323Z,5.10
2019-03-27T14:29:28.057Z,4.70
2019-03-27T14:31:56.170Z,5.40
2019-03-27T14:34:23.821Z,4.80
2019-03-27T14:36:51.556Z,5.53
2019-03-27T14:39:19.181Z,6.13
2019-03-27T14:41:46.963Z,5.60
2019-03-27T14:44:14.762Z,5.77
2019-03-27T14:46:42.517Z,5.23
2019-03-27T14:49:10.283Z,6.30
2019-03-27T14:51:38.432Z,6.90
2019-03-27T14:54:06.210Z,5.50
2019-03-27T14:56:34.023Z,6.03
2019-03-27T14:59:01.755Z,7.43
2019-03-27T15:01:29.795Z,6.30
2019-03-27T15:03:58.564Z,5.57
2019-03-27T15:06:26.292Z,6.03
2019-03-27T15:08:54.424Z,6.53
2019-03-27T15:11:22.193Z,6.30
2019-03-27T15:13:49.903Z,5.67
2019-03-27T15:16:18.285Z,7.10
2019-03-27T15:18:46.170Z,6.17
2019-03-27T15:21:13.922Z,6.20
2019-03-27T15:23:41.656Z,5.80
2019-03-27T15:26:09.414Z,7.20
2019-03-27T15:28:37.154Z,7.03
2019-03-27T15:31:04.992Z,6.23
2019-03-27T15:33:32.768Z,6.50
2019-03-27T15:36:00.757Z,6.50
2019-03-27T15:38:28.668Z,5.13
2019-03-27T15:40:56.440Z,5.97
2019-03-27T15:43:24.171Z,7.13
2019-03-27T15:45:51.890Z,6.33
2019-03-27T15:48:19.649Z,6.70
2019-03-27T15:50:55.535Z,6.23
2019-03-27T15:53:17.244Z,6.47
2019-03-27T15:55:45.289Z,6.40
2019-03-27T15:58:13.046Z,6.60
2019-03-27T16:00:41.125Z,7.53
2019-03-27T16:03:08.891Z,6.00
2019-03-27T16:05:36.521Z,7.13
2019-03-27T16:08:04.254Z,7.97
2019-03-27T16:10:32.111Z,7.60
2019-03-27T16:12:59.984Z,6.43
2019-03-27T16:15:27.657Z,7.23
2019-03-27T16:17:55.338Z,7.57
2019-03-27T16:20:23.131Z,6.10
2019-03-27T16:22:51.379Z,7.10
2019-03-27T16:25:19.177Z,7.40
2019-03-27T16:27:47.471Z,7.73
2019-03-27T16:30:17.168Z,7.60
2019-03-27T16:32:45.438Z,6.43
2019-03-27T16:35:13.832Z,6.90
2019-03-27T16:37:41.577Z,8.07
2019-03-27T16:40:09.876Z,6.70
2019-03-27T16:42:38.021Z,6.70
2019-03-27T16:45:06.358Z,6.20
2019-03-27T16:47:34.252Z,7.30
2019-03-27T16:50:01.996Z,5.97
2019-03-27T16:52:29.856Z,6.47
2019-03-27T16:54:57.532Z,7.23
2019-03-27T16:57:25.248Z,6.40
2019-03-27T16:59:53.010Z,6.60
2019-03-27T17:02:20.814Z,7.17
2019-03-27T17:04:48.540Z,6.73
2019-03-27T17:07:16.352Z,6.83
2019-03-27T17:09:44.204Z,6.30
2019-03-27T17:12:12.254Z,7.50
2019-03-27T17:14:40.001Z,8.37
2019-03-27T17:17:08.027Z,7.10
2019-03-27T17:19:35.774Z,8.03
2019-03-27T17:22:03.542Z,6.60
2019-03-27T17:24:31.334Z,6.87
2019-03-27T17:26:59.097Z,7.40
2019-03-27T17:29:27.497Z,9.07
2019-03-27T17:31:55.213Z,7.50
2019-03-27T17:34:22.927Z,7.53
2019-03-27T17:36:50.641Z,7.47
2019-03-27T17:39:18.906Z,7.40
2019-03-27T17:41:46.602Z,8.30
2019-03-27T17:44:14.479Z,7.13
2019-03-27T17:46:42.597Z,6.93
2019-03-27T17:49:10.321Z,7.23
2019-03-27T17:51:38.313Z,7.57
2019-03-27T17:54:19.608Z,8.10
2019-03-27T17:56:36.125Z,7.30
2019-03-27T17:59:04.023Z,6.77
2019-03-27T18:01:31.839Z,6.57
2019-03-27T18:03:59.595Z,7.17
2019-03-27T18:06:27.319Z,8.13
2019-03-27T18:08:55.081Z,7.90
2019-03-27T18:11:22.830Z,7.63
2019-03-27T18:13:50.623Z,8.40
2019-03-27T18:16:18.703Z,6.73
2019-03-27T18:18:46.523Z,7.40
2019-03-27T18:21:14.472Z,7.90
2019-03-27T18:23:46.243Z,7.53
2019-03-27T18:26:14.116Z,8.10
2019-03-27T18:28:41.933Z,8.23
2019-03-27T18:31:09.869Z,7.70
2019-03-27T18:33:37.591Z,8.30
2019-03-27T18:36:05.281Z,8.50
2019-03-27T18:38:33.080Z,7.63
2019-03-27T18:41:01.077Z,7.70
2019-03-27T18:43:29.288Z,7.70
2019-03-27T18:45:56.997Z,11.00
2019-03-27T18:48:25.086Z,8.87
2019-03-27T18:50:52.835Z,8.20
2019-03-27T18:53:20.602Z,7.63
2019-03-27T18:55:48.482Z,7.83
2019-03-27T18:58:16.205Z,8.50
2019-03-27T19:00:44.122Z,7.87
2019-03-27T19:03:11.938Z,8.00
2019-03-27T19:05:39.591Z,8.70
2019-03-27T19:08:07.345Z,7.37
2019-03-27T19:10:35.358Z,8.20
2019-03-27T19:13:03.132Z,8.63
2019-03-27T19:15:30.857Z,9.13
2019-03-27T19:17:58.467Z,10.70
2019-03-27T19:20:26.683Z,9.73
2019-03-27T19:22:54.463Z,8.63
2019-03-27T19:25:22.683Z,10.20
2019-03-27T19:27:50.540Z,9.80
2019-03-27T19:30:18.681Z,9.40
2019-03-27T19:32:46.361Z,9.83
2019-03-27T19:35:14.506Z,9.90
2019-03-27T19:37:42.281Z,10.27
2019-03-27T19:40:10.478Z,10.50
2019-03-27T19:42:38.224Z,11.00
2019-03-27T19:45:07.153Z,12.20
2019-03-27T19:47:34.850Z,11.73
2019-03-27T19:50:03.183Z,11.43
2019-03-27T19:52:30.839Z,12.43
2019-03-27T19:54:58.608Z,13.00
2019-03-27T19:57:26.680Z,13.23
2019-03-27T19:59:57.669Z,12.23
2019-03-27T20:02:25.576Z,12.63
2019-03-27T20:04:53.510Z,14.50
2019-03-27T20:07:21.389Z,14.17
2019-03-27T20:09:49.187Z,12.63
2019-03-27T20:12:17.079Z,14.00
2019-03-27T20:14:44.917Z,13.73
2019-03-27T20:17:12.631Z,14.90
2019-03-27T20:19:40.445Z,12.10
2019-03-27T20:22:08.249Z,13.67
2019-03-27T20:24:41.232Z,13.13
2019-03-27T20:27:06.478Z,15.23
2019-03-27T20:29:34.324Z,15.20
2019-03-27T20:32:02.371Z,22.30
2019-03-27T20:34:30.106Z,16.47
2019-03-27T20:36:57.955Z,14.60
2019-03-27T20:39:25.614Z,14.17
2019-03-27T20:41:53.427Z,15.13
2019-03-27T20:44:21.320Z,14.23
2019-03-27T20:46:49.200Z,14.63
2019-03-27T20:49:17.048Z,12.77
2019-03-27T20:51:44.848Z,12.97
2019-03-27T20:54:12.650Z,14.70
2019-03-27T20:56:40.448Z,13.07
2019-03-27T20:59:08.596Z,13.03
2019-03-27T21:01:36.318Z,12.93
2019-03-27T21:04:04.095Z,12.90
2019-03-27T21:06:32.282Z,15.00
2019-03-27T21:09:00.055Z,15.57
2019-03-27T21:11:27.854Z,13.73
2019-03-27T21:13:55.620Z,14.67
2019-03-27T21:16:23.699Z,13.50
2019-03-27T21:18:51.416Z,13.70
2019-03-27T21:21:19.251Z,14.57
2019-03-27T21:23:47.048Z,16.47
2019-03-27T21:26:14.674Z,16.27
2019-03-27T21:28:42.461Z,15.40
2019-03-27T21:31:10.581Z,15.20
2019-03-27T21:33:38.357Z,14.10
2019-03-27T21:36:06.130Z,14.80
2019-03-27T21:38:33.845Z,16.97
2019-03-27T21:41:01.597Z,15.30
2019-03-27T21:43:29.363Z,14.90
2019-03-27T21:45:57.051Z,15.70
2019-03-27T21:48:24.840Z,13.90
2019-03-27T21:50:52.833Z,16.30
2019-03-27T21:53:20.581Z,14.83
2019-03-27T21:55:48.307Z,15.10
2019-03-27T21:58:16.089Z,15.17
2019-03-27T22:00:43.805Z,14.87
2019-03-27T22:03:11.552Z,15.27
2019-03-27T22:05:39.194Z,15.10
2019-03-27T22:08:07.578Z,14.80
2019-03-27T22:10:35.560Z,13.93
2019-03-27T22:13:03.347Z,14.90
2019-03-27T22:15:31.502Z,14.47
2019-03-27T22:17:59.152Z,14.23
2019-03-27T22:20:27.274Z,15.90
2019-03-27T22:22:54.954Z,16.27
2019-03-27T22:25:35.408Z,15.03
2019-03-27T22:27:52.657Z,12.37
2019-03-27T22:30:20.352Z,13.37
2019-03-27T22:32:48.081Z,12.13
2019-03-27T22:35:15.813Z,12.57
2019-03-27T22:37:43.566Z,11.90
2019-03-27T22:40:11.314Z,14.57
2019-03-27T22:42:39.036Z,12.47
2019-03-27T22:45:06.990Z,13.27
2019-03-27T22:47:34.725Z,13.30
2019-03-27T22:50:02.989Z,13.73
2019-03-27T22:52:31.101Z,12.67
2019-03-27T22:54:58.887Z,12.80
2019-03-27T22:57:26.698Z,12.90
2019-03-27T22:59:54.358Z,13.70
2019-03-27T23:02:22.182Z,12.70
2019-03-27T23:04:52.098Z,13.10
2019-03-27T23:07:19.751Z,14.50
2019-03-27T23:09:47.468Z,12.10
2019-03-27T23:12:15.260Z,14.27
2019-03-27T23:14:42.998Z,12.37
2019-03-27T23:17:10.619Z,13.80
2019-03-27T23:19:38.743Z,13.67
2019-03-27T23:22:06.592Z,15.37
2019-03-27T23:24:34.304Z,16.83
2019-03-27T23:27:02.067Z,16.30
2019-03-27T23:29:29.819Z,16.87
2019-03-27T23:31:57.559Z,14.93
2019-03-27T23:34:25.305Z,15.73
2019-03-27T23:36:52.958Z,16.00
2019-03-27T23:39:20.674Z,16.03
2019-03-27T23:41:48.334Z,17.40
2019-03-27T23:44:16.088Z,16.83
2019-03-27T23:46:43.817Z,16.47
2019-03-27T23:49:12.189Z,16.27
2019-03-27T23:51:40.321Z,15.27
2019-03-27T23:54:08.184Z,16.23
2019-03-27T23:56:35.922Z,15.63
2019-03-27T23:59:03.696Z,16.00
